Time;durP1;ratioP1;P1;durP2;ratioP2;P2;SDS_P1;SDS_P2;PMS_P1;PMS_P2;Temp;Humidity;BMP_temperature;BMP_pressure;BME280_temperature;BME280_humidity;BME280_pressure;Samples;Min_cycle;Max_cycle;Signal;HPM_P1;HPM_P2
2023/07/31 00:00:27;;;;;;;8.10;3.47;;;16.10;99.90;;;;;;5022479;28;20030;-73
2023/07/31 00:02:53;;;;;;;8.43;3.58;;;16.00;99.90;;;;;;5021224;28;20034;-72
2023/07/31 00:05:18;;;;;;;15.50;4.40;;;16.00;99.90;;;;;;5021497;28;20037;-73
2023/07/31 00:07:44;;;;;;;8.57;3.70;;;16.10;99.90;;;;;;5021678;28;20025;-70
2023/07/31 00:10:10;;;;;;;10.40;3.80;;;16.10;99.90;;;;;;5022908;28;20050;-71
2023/07/31 00:12:35;;;;;;;10.20;3.97;;;16.10;99.90;;;;;;5022621;28;20078;-72
2023/07/31 00:15:02;;;;;;;17.65;4.78;;;16.10;99.90;;;;;;5022648;28;20029;-73
2023/07/31 00:17:28;;;;;;;11.18;4.63;;;16.10;99.90;;;;;;5021612;28;20441;-73
2023/07/31 00:19:56;;;;;;;10.68;4.75;;;16.10;99.90;;;;;;5020634;28;20031;-73
2023/07/31 00:22:22;;;;;;;11.85;5.00;;;16.00;99.90;;;;;;5021737;28;20405;-73
2023/07/31 00:24:48;;;;;;;14.80;5.45;;;16.10;99.90;;;;;;5022744;28;20026;-74
2023/07/31 00:27:13;;;;;;;11.80;4.90;;;16.00;99.90;;;;;;5021641;28;20137;-73
2023/07/31 00:29:39;;;;;;;11.68;4.25;;;16.00;99.90;;;;;;5021863;28;20053;-71
2023/07/31 00:32:05;;;;;;;9.85;4.07;;;16.00;99.90;;;;;;5022505;28;20461;-70
2023/07/31 00:34:30;;;;;;;11.60;4.25;;;16.10;99.90;;;;;;5022425;28;20037;-69
2023/07/31 00:36:56;;;;;;;11.80;4.07;;;16.10;99.90;;;;;;5022108;28;20177;-71
2023/07/31 00:39:22;;;;;;;12.93;4.30;;;16.10;99.90;;;;;;5022288;28;20018;-70
2023/07/31 00:41:47;;;;;;;12.85;4.07;;;16.10;99.90;;;;;;5021867;28;20060;-72
2023/07/31 00:44:13;;;;;;;8.85;3.55;;;16.10;99.90;;;;;;5021301;28;20026;-71
2023/07/31 00:46:39;;;;;;;7.25;2.97;;;16.10;99.90;;;;;;5022118;28;20033;-71
2023/07/31 00:49:05;;;;;;;6.68;3.30;;;16.10;99.90;;;;;;5019705;28;20125;-71
2023/07/31 00:51:31;;;;;;;7.80;2.88;;;16.10;99.90;;;;;;5021372;28;20487;-73
2023/07/31 00:53:57;;;;;;;9.02;2.80;;;16.10;99.90;;;;;;5022778;28;20056;-74
2023/07/31 00:56:23;;;;;;;7.88;2.70;;;16.10;99.90;;;;;;5021512;28;20026;-72
2023/07/31 00:58:49;;;;;;;7.65;2.88;;;16.10;99.90;;;;;;5021763;28;20041;-73
2023/07/31 01:01:16;;;;;;;8.30;2.67;;;16.10;99.90;;;;;;5021075;28;20026;-71
2023/07/31 01:03:42;;;;;;;6.85;2.83;;;16.10;99.90;;;;;;5022001;28;20040;-72
2023/07/31 01:06:19;;;;;;;7.93;2.70;;;16.00;99.90;;;;;;5021753;28;20029;-72
2023/07/31 01:09:15;;;;;;;5.72;2.70;;;16.00;99.90;;;;;;5021760;28;20065;-71
2023/07/31 01:12:12;;;;;;;6.22;2.92;;;16.00;99.90;;;;;;5020204;28;20092;-74
2023/07/31 01:14:37;;;;;;;7.18;2.65;;;16.00;99.90;;;;;;5020551;28;20042;-72
2023/07/31 01:17:03;;;;;;;6.03;2.47;;;16.00;99.90;;;;;;5019938;28;20033;-69
2023/07/31 01:19:30;;;;;;;4.85;2.65;;;16.00;99.90;;;;;;5019625;28;20030;-72
2023/07/31 01:21:56;;;;;;;5.93;2.30;;;16.00;99.90;;;;;;5021906;28;20383;-71
2023/07/31 01:24:48;;;;;;;4.97;2.15;;;16.00;99.90;;;;;;5021203;28;20074;-71
2023/07/31 01:27:20;;;;;;;6.50;2.67;;;16.00;99.90;;;;;;5022078;28;20034;-73
2023/07/31 01:29:56;;;;;;;5.28;2.70;;;16.00;99.90;;;;;;5019905;28;20040;-74
2023/07/31 01:32:25;;;;;;;6.90;2.40;;;16.00;99.90;;;;;;5019808;28;20034;-73
2023/07/31 01:34:52;;;;;;;8.43;2.78;;;15.90;99.90;;;;;;5021531;28;20044;-71
2023/07/31 01:37:18;;;;;;;4.75;2.72;;;15.90;99.90;;;;;;5021438;28;20014;-71
2023/07/31 01:39:43;;;;;;;4.22;2.40;;;15.90;99.90;;;;;;5020654;28;20053;-71
2023/07/31 01:42:09;;;;;;;4.95;2.42;;;15.90;99.90;;;;;;5021440;28;20395;-76
2023/07/31 01:44:34;;;;;;;6.75;2.65;;;15.90;99.90;;;;;;5021132;28;20026;-71
2023/07/31 01:47:00;;;;;;;10.55;2.80;;;15.90;99.90;;;;;;5020740;28;20033;-71
2023/07/31 01:49:26;;;;;;;6.93;2.33;;;15.90;99.90;;;;;;5022006;28;20064;-74
2023/07/31 01:51:52;;;;;;;3.58;2.30;;;15.90;99.90;;;;;;5020941;28;20038;-73
2023/07/31 01:54:18;;;;;;;6.32;2.65;;;15.90;99.90;;;;;;5019613;28;20033;-74
2023/07/31 01:56:44;;;;;;;6.93;2.67;;;15.90;99.90;;;;;;5020748;28;20018;-71
2023/07/31 01:59:09;;;;;;;4.70;2.42;;;15.90;99.90;;;;;;5021457;28;20040;-73
2023/07/31 02:01:35;;;;;;;5.60;2.20;;;15.90;99.90;;;;;;5020514;28;20014;-71
2023/07/31 02:04:01;;;;;;;4.65;2.03;;;15.90;99.90;;;;;;5020853;28;20050;-70
2023/07/31 02:06:27;;;;;;;5.47;2.45;;;15.90;99.90;;;;;;5020566;28;20041;-71
2023/07/31 02:08:52;;;;;;;4.93;2.55;;;15.90;99.90;;;;;;5021228;28;21631;-73
2023/07/31 02:11:18;;;;;;;5.13;2.50;;;15.90;99.90;;;;;;5021042;28;20030;-75
2023/07/31 02:13:44;;;;;;;4.10;2.22;;;15.90;99.90;;;;;;5020643;28;20030;-72
2023/07/31 02:16:09;;;;;;;5.55;2.67;;;15.80;99.90;;;;;;5021085;28;20030;-73
2023/07/31 02:18:35;;;;;;;5.22;2.97;;;15.80;99.90;;;;;;5019758;28;20372;-72
2023/07/31 02:21:00;;;;;;;8.52;3.70;;;15.80;99.90;;;;;;5019413;28;20472;-73
2023/07/31 02:23:26;;;;;;;7.68;4.30;;;15.70;99.90;;;;;;5019989;28;20048;-74
2023/07/31 02:25:51;;;;;;;8.73;3.95;;;15.70;99.90;;;;;;5021354;28;20026;-73
2023/07/31 02:28:17;;;;;;;8.32;4.03;;;15.60;99.90;;;;;;5019529;28;20026;-73
2023/07/31 02:30:46;;;;;;;6.00;3.58;;;15.50;99.90;;;;;;5021088;28;20050;-74
2023/07/31 02:33:12;;;;;;;7.90;3.83;;;15.50;99.90;;;;;;5019496;28;20072;-70
2023/07/31 02:35:37;;;;;;;7.25;3.30;;;15.40;99.90;;;;;;5020591;28;20014;-75
2023/07/31 02:38:03;;;;;;;7.22;3.58;;;15.30;99.90;;;;;;5019368;28;20495;-74
2023/07/31 02:40:28;;;;;;;11.35;4.20;;;15.30;99.90;;;;;;5020293;28;20025;-72
2023/07/31 02:42:54;;;;;;;6.50;3.67;;;15.30;99.90;;;;;;5020653;28;20026;-70
2023/07/31 02:45:20;;;;;;;7.82;3.92;;;15.20;99.90;;;;;;5019338;28;20018;-73
2023/07/31 02:47:45;;;;;;;13.60;4.47;;;15.20;99.90;;;;;;5020754;28;20434;-72
2023/07/31 02:50:11;;;;;;;12.07;4.03;;;15.10;99.90;;;;;;5019409;28;20620;-73
2023/07/31 02:52:37;;;;;;;8.68;3.97;;;15.00;99.90;;;;;;5020490;28;20078;-75
2023/07/31 02:55:02;;;;;;;10.65;3.75;;;15.00;99.90;;;;;;5019916;28;20030;-75
2023/07/31 02:57:28;;;;;;;6.53;3.53;;;14.90;99.90;;;;;;5020588;28;20018;-77
2023/07/31 02:59:53;;;;;;;9.57;3.88;;;15.00;99.90;;;;;;5020765;28;20108;-74
2023/07/31 03:02:19;;;;;;;10.80;4.03;;;15.00;99.90;;;;;;5019262;28;20026;-76
2023/07/31 03:04:45;;;;;;;8.43;3.90;;;15.00;99.90;;;;;;5023119;28;20049;-75
2023/07/31 03:07:11;;;;;;;6.68;4.00;;;14.90;99.90;;;;;;5021988;28;20046;-74
2023/07/31 03:09:36;;;;;;;9.15;4.30;;;14.90;99.90;;;;;;5023955;28;20040;-74
2023/07/31 03:12:03;;;;;;;7.82;4.25;;;14.90;99.90;;;;;;5024195;28;20017;-72
2023/07/31 03:14:28;;;;;;;10.80;4.50;;;14.90;99.90;;;;;;5023770;28;20044;-74
2023/07/31 03:16:54;;;;;;;7.72;4.50;;;14.90;99.90;;;;;;5024096;28;20026;-72
2023/07/31 03:19:21;;;;;;;10.68;4.63;;;14.80;99.90;;;;;;5023889;28;20052;-75
2023/07/31 03:21:47;;;;;;;9.68;4.55;;;14.80;99.90;;;;;;5023615;28;20064;-74
2023/07/31 03:24:13;;;;;;;14.63;5.72;;;14.80;99.90;;;;;;5023912;28;20037;-73
2023/07/31 03:26:41;;;;;;;14.27;5.95;;;14.80;99.90;;;;;;5023967;28;20022;-74
2023/07/31 03:29:07;;;;;;;11.45;5.10;;;14.80;99.90;;;;;;5022147;28;20402;-74
2023/07/31 03:31:32;;;;;;;10.52;5.32;;;14.80;99.90;;;;;;5023532;28;20017;-74
2023/07/31 03:33:58;;;;;;;12.18;5.82;;;14.80;99.90;;;;;;5021784;28;20033;-76
2023/07/31 03:36:24;;;;;;;11.50;6.05;;;14.80;99.90;;;;;;5023321;28;20458;-74
2023/07/31 03:38:51;;;;;;;10.43;6.28;;;14.80;99.90;;;;;;5023858;28;20033;-75
2023/07/31 03:41:17;;;;;;;11.27;6.00;;;14.70;99.90;;;;;;5023312;28;20062;-75
2023/07/31 03:43:43;;;;;;;15.88;7.10;;;14.70;99.90;;;;;;5023329;28;20029;-77
2023/07/31 03:46:08;;;;;;;14.52;7.75;;;14.70;99.90;;;;;;5023168;28;20034;-76
2023/07/31 03:48:34;;;;;;;16.40;7.55;;;14.70;99.90;;;;;;5022587;28;20184;-73
2023/07/31 03:51:00;;;;;;;15.38;7.07;;;14.70;99.90;;;;;;5022725;28;20021;-73
2023/07/31 03:53:25;;;;;;;21.90;7.65;;;14.70;99.90;;;;;;5023179;28;20042;-76
2023/07/31 03:55:51;;;;;;;14.55;7.95;;;14.70;99.90;;;;;;5023319;28;20033;-74
2023/07/31 03:58:17;;;;;;;19.63;8.10;;;14.70;99.90;;;;;;5022074;28;20058;-74
2023/07/31 04:00:42;;;;;;;15.45;8.18;;;14.70;99.90;;;;;;5023357;28;20030;-74
2023/07/31 04:03:09;;;;;;;18.55;8.57;;;14.70;99.90;;;;;;5023444;28;20045;-74
2023/07/31 04:05:38;;;;;;;16.55;7.72;;;14.70;99.90;;;;;;5022444;28;20030;-73
2023/07/31 04:08:04;;;;;;;17.75;9.23;;;14.70;99.90;;;;;;5038156;28;20482;-77
2023/07/31 04:10:33;;;;;;;15.48;8.05;;;14.70;99.90;;;;;;5023894;28;20076;-75
2023/07/31 04:12:59;;;;;;;19.73;8.55;;;14.70;99.90;;;;;;5022710;28;20108;-74
2023/07/31 04:15:24;;;;;;;18.77;8.88;;;14.70;99.90;;;;;;5021563;28;20098;-74
2023/07/31 04:17:50;;;;;;;19.60;9.65;;;14.70;99.90;;;;;;5023350;28;20026;-74
2023/07/31 04:20:16;;;;;;;22.42;10.18;;;14.70;99.90;;;;;;5022399;28;20030;-74
2023/07/31 04:22:41;;;;;;;25.45;11.23;;;14.70;99.90;;;;;;5023565;28;20026;-73
2023/07/31 04:25:07;;;;;;;29.80;11.40;;;14.70;99.90;;;;;;5021043;28;20049;-74
2023/07/31 04:27:33;;;;;;;31.10;11.52;;;14.70;99.90;;;;;;5022958;28;20022;-74
2023/07/31 04:29:58;;;;;;;31.33;12.75;;;14.70;99.90;;;;;;5021492;28;20113;-72
2023/07/31 04:32:24;;;;;;;32.47;13.80;;;14.80;99.90;;;;;;5022553;28;20029;-74
2023/07/31 04:34:49;;;;;;;33.40;13.20;;;14.70;99.90;;;;;;5022149;28;20022;-75
2023/07/31 04:37:16;;;;;;;35.60;13.68;;;14.70;99.90;;;;;;5022852;28;20117;-74
2023/07/31 04:39:41;;;;;;;38.30;13.50;;;14.70;99.90;;;;;;5022567;28;20671;-74
2023/07/31 04:42:07;;;;;;;31.73;12.20;;;14.70;99.90;;;;;;5020093;28;20029;-73
2023/07/31 04:44:32;;;;;;;31.45;11.93;;;14.70;99.90;;;;;;5022946;28;20026;-74
2023/07/31 04:46:58;;;;;;;29.08;12.23;;;14.70;99.90;;;;;;5022058;28;20084;-74
2023/07/31 04:49:23;;;;;;;27.02;10.50;;;14.70;99.90;;;;;;5021174;28;20419;-74
2023/07/31 04:51:49;;;;;;;28.55;11.15;;;14.80;99.90;;;;;;5021505;28;20049;-74
2023/07/31 04:54:15;;;;;;;27.73;11.30;;;14.80;99.90;;;;;;5022285;28;20109;-77
2023/07/31 04:56:41;;;;;;;27.20;11.30;;;14.80;99.90;;;;;;5022802;28;20034;-75
2023/07/31 04:59:07;;;;;;;28.75;11.07;;;14.80;99.90;;;;;;5021051;28;20022;-73
2023/07/31 05:01:32;;;;;;;26.83;10.65;;;14.80;99.90;;;;;;5022366;28;20486;-74
2023/07/31 05:03:58;;;;;;;21.77;10.00;;;14.80;99.90;;;;;;5023212;28;20055;-74
2023/07/31 05:06:24;;;;;;;28.40;10.52;;;14.80;99.90;;;;;;5018397;28;20026;-75
2023/07/31 05:08:49;;;;;;;24.73;9.85;;;14.80;99.90;;;;;;5021112;28;20433;-74
2023/07/31 05:11:15;;;;;;;22.83;10.70;;;14.80;99.90;;;;;;5022936;28;20034;-75
2023/07/31 05:13:41;;;;;;;27.42;10.55;;;14.80;99.90;;;;;;5022439;28;20072;-75
2023/07/31 05:16:06;;;;;;;33.28;12.65;;;14.80;99.90;;;;;;5022029;28;20057;-77
2023/07/31 05:18:32;;;;;;;31.80;12.40;;;14.80;99.90;;;;;;5021032;28;20032;-75
2023/07/31 05:20:57;;;;;;;27.02;12.88;;;14.80;99.90;;;;;;5022193;28;20029;-75
2023/07/31 05:23:23;;;;;;;29.63;13.00;;;14.90;99.90;;;;;;5021992;28;20140;-74
2023/07/31 05:25:49;;;;;;;25.20;11.25;;;14.90;99.90;;;;;;5020821;28;20026;-75
2023/07/31 05:28:15;;;;;;;28.42;12.50;;;14.90;99.90;;;;;;5021363;28;20053;-72
2023/07/31 05:30:40;;;;;;;28.23;12.65;;;14.90;99.90;;;;;;5022905;28;20033;-71
2023/07/31 05:33:06;;;;;;;22.67;11.07;;;14.90;99.90;;;;;;5022605;28;20038;-74
2023/07/31 05:35:32;;;;;;;29.33;12.07;;;14.90;99.90;;;;;;5021898;28;20026;-75
2023/07/31 05:37:57;;;;;;;27.52;12.15;;;14.90;99.90;;;;;;5019727;28;20478;-74
2023/07/31 05:40:23;;;;;;;29.95;13.23;;;14.90;99.90;;;;;;5022230;28;20061;-74
2023/07/31 05:42:48;;;;;;;34.28;13.45;;;14.90;99.90;;;;;;5021613;28;20037;-75
2023/07/31 05:45:14;;;;;;;28.58;12.13;;;14.90;99.90;;;;;;5019994;28;20045;-74
2023/07/31 05:47:40;;;;;;;29.27;12.90;;;14.90;99.90;;;;;;5020729;28;20482;-73
2023/07/31 05:50:06;;;;;;;28.13;11.88;;;14.90;99.90;;;;;;5019301;28;20280;-72
2023/07/31 05:52:32;;;;;;;23.98;11.55;;;14.90;99.90;;;;;;5021258;28;20060;-73
2023/07/31 05:54:57;;;;;;;25.17;11.00;;;14.90;99.90;;;;;;5021088;28;20509;-72
2023/07/31 05:57:23;;;;;;;23.90;10.68;;;15.00;99.90;;;;;;5018698;28;20037;-72
2023/07/31 05:59:49;;;;;;;25.50;11.52;;;15.00;99.90;;;;;;5018988;28;20057;-72
2023/07/31 06:02:15;;;;;;;22.23;10.55;;;15.00;99.90;;;;;;5019067;28;21603;-73
2023/07/31 06:04:40;;;;;;;22.75;10.70;;;15.10;99.90;;;;;;5019690;28;20034;-72
2023/07/31 06:07:06;;;;;;;26.55;11.85;;;15.10;99.90;;;;;;5020149;28;20041;-70
2023/07/31 06:09:32;;;;;;;23.48;11.05;;;15.10;99.90;;;;;;5019083;28;20132;-71
2023/07/31 06:11:57;;;;;;;19.85;9.77;;;15.10;99.90;;;;;;5021470;28;20054;-72
2023/07/31 06:14:23;;;;;;;25.45;12.00;;;15.10;99.90;;;;;;5020694;28;20053;-72
2023/07/31 06:16:48;;;;;;;22.95;11.30;;;15.20;99.90;;;;;;5022159;28;20034;-72
2023/07/31 06:19:15;;;;;;;25.58;12.20;;;15.20;99.90;;;;;;5021235;28;20068;-72
2023/07/31 06:21:43;;;;;;;24.75;11.75;;;15.20;99.90;;;;;;5021709;28;20026;-72
2023/07/31 06:24:08;;;;;;;23.80;11.00;;;15.10;99.90;;;;;;5021064;28;20028;-73
2023/07/31 06:26:34;;;;;;;23.02;11.65;;;15.20;99.90;;;;;;5019105;28;20026;-71
2023/07/31 06:29:00;;;;;;;26.20;11.75;;;15.20;99.90;;;;;;5021707;28;20060;-72
2023/07/31 06:31:25;;;;;;;20.92;9.65;;;15.20;99.90;;;;;;5021031;28;20041;-72
2023/07/31 06:33:52;;;;;;;21.10;9.68;;;15.20;99.90;;;;;;5019882;28;20037;-73
2023/07/31 06:36:18;;;;;;;19.00;9.43;;;15.20;99.90;;;;;;5020610;28;20052;-73
2023/07/31 06:38:43;;;;;;;16.45;8.38;;;15.20;99.90;;;;;;5022225;28;20029;-73
2023/07/31 06:41:10;;;;;;;15.75;7.07;;;15.20;99.90;;;;;;5024433;28;20033;-72
2023/07/31 06:43:36;;;;;;;16.20;7.95;;;15.30;99.90;;;;;;5025319;28;20018;-74
2023/07/31 06:46:06;;;;;;;18.85;9.07;;;15.30;99.90;;;;;;5024081;28;21705;-73
2023/07/31 06:48:32;;;;;;;22.77;9.32;;;15.20;99.90;;;;;;5023693;28;20045;-72
2023/07/31 06:50:58;;;;;;;16.15;8.73;;;15.30;99.90;;;;;;5024866;28;20133;-72
2023/07/31 06:53:24;;;;;;;19.92;8.75;;;15.30;99.90;;;;;;5022904;28;20045;-73
2023/07/31 06:55:51;;;;;;;18.05;8.60;;;15.30;99.90;;;;;;5023920;28;20046;-73
2023/07/31 06:58:17;;;;;;;23.92;10.13;;;15.30;99.90;;;;;;5023732;28;20026;-74
2023/07/31 07:00:43;;;;;;;18.65;9.15;;;15.30;99.90;;;;;;5022858;28;20029;-73
2023/07/31 07:03:09;;;;;;;19.52;10.05;;;15.30;99.90;;;;;;5024480;28;20030;-72
2023/07/31 07:05:35;;;;;;;21.90;10.18;;;15.30;99.90;;;;;;5023758;28;20032;-72
2023/07/31 07:08:00;;;;;;;20.55;9.13;;;15.30;99.90;;;;;;5023956;28;20026;-72
2023/07/31 07:10:26;;;;;;;22.55;10.40;;;15.30;99.90;;;;;;5022878;28;20045;-73
2023/07/31 07:12:53;;;;;;;26.65;11.75;;;15.30;99.90;;;;;;5021070;28;20342;-74
2023/07/31 07:15:19;;;;;;;17.35;8.70;;;15.30;99.90;;;;;;5018297;28;20033;-75
2023/07/31 07:17:45;;;;;;;18.65;9.38;;;15.40;99.90;;;;;;5017914;28;20056;-73
2023/07/31 07:20:10;;;;;;;22.00;8.32;;;15.40;99.90;;;;;;5021482;28;20046;-71
2023/07/31 07:22:36;;;;;;;17.08;7.85;;;15.40;99.90;;;;;;5017846;28;20036;-72
2023/07/31 07:25:03;;;;;;;7.93;4.50;;;15.40;99.90;;;;;;5021717;28;20094;-71
2023/07/31 07:27:29;;;;;;;8.40;4.35;;;15.40;99.90;;;;;;5021710;28;20180;-71
2023/07/31 07:29:54;;;;;;;6.25;3.65;;;15.40;99.90;;;;;;5021343;28;20502;-72
2023/07/31 07:32:21;;;;;;;4.35;2.75;;;15.50;99.90;;;;;;5021691;28;20333;-71
2023/07/31 07:34:48;;;;;;;5.47;3.00;;;15.50;99.90;;;;;;5022598;28;20037;-72
2023/07/31 07:37:13;;;;;;;5.45;3.13;;;15.50;99.90;;;;;;5023617;28;20034;-73
2023/07/31 07:39:39;;;;;;;4.70;2.67;;;15.50;99.90;;;;;;5023786;28;20463;-70
2023/07/31 07:42:05;;;;;;;8.00;3.10;;;15.50;99.90;;;;;;5022593;28;20026;-70
2023/07/31 07:44:30;;;;;;;9.63;3.47;;;15.60;99.90;;;;;;5024053;28;20022;-71
2023/07/31 07:46:56;;;;;;;6.43;3.47;;;15.60;99.90;;;;;;5023967;28;20022;-70
2023/07/31 07:49:25;;;;;;;8.40;3.28;;;15.60;99.90;;;;;;5019920;28;20344;-70
2023/07/31 07:51:51;;;;;;;6.60;3.00;;;15.60;99.90;;;;;;5021250;28;20123;-69
2023/07/31 07:54:17;;;;;;;4.47;2.70;;;15.60;99.90;;;;;;5022697;28;20030;-71
2023/07/31 07:56:43;;;;;;;6.18;2.80;;;15.60;99.90;;;;;;5022385;28;20035;-70
2023/07/31 07:59:08;;;;;;;5.55;2.97;;;15.60;99.90;;;;;;5022533;28;20034;-70
2023/07/31 08:01:34;;;;;;;5.95;3.03;;;15.60;99.90;;;;;;5020639;28;20057;-71
2023/07/31 08:04:00;;;;;;;6.25;3.15;;;15.60;99.90;;;;;;5022118;28;20076;-69
2023/07/31 08:06:25;;;;;;;6.22;2.70;;;15.50;99.90;;;;;;5023455;28;20038;-71
2023/07/31 08:08:51;;;;;;;6.00;3.03;;;15.60;99.90;;;;;;5022509;28;20045;-71
2023/07/31 08:11:17;;;;;;;9.80;4.70;;;15.60;99.90;;;;;;5020781;28;20041;-70
2023/07/31 08:13:42;;;;;;;12.18;5.85;;;15.60;99.90;;;;;;5022718;28;20034;-70
2023/07/31 08:16:08;;;;;;;20.50;7.18;;;15.60;99.90;;;;;;5023692;28;20034;-70
2023/07/31 08:18:34;;;;;;;28.38;11.13;;;15.60;99.90;;;;;;5022049;28;20611;-71
2023/07/31 08:21:04;;;;;;;33.55;12.82;;;15.70;99.90;;;;;;5022945;28;20078;-69
2023/07/31 08:23:30;;;;;;;32.88;13.90;;;15.70;99.90;;;;;;5022235;28;20025;-71
2023/07/31 08:25:55;;;;;;;46.45;15.23;;;15.70;99.90;;;;;;5019053;28;20030;-70
2023/07/31 08:28:21;;;;;;;43.63;14.75;;;15.70;99.90;;;;;;5020630;28;20034;-70
2023/07/31 08:30:47;;;;;;;46.00;15.60;;;15.80;99.90;;;;;;5021809;28;20639;-71
2023/07/31 08:33:12;;;;;;;50.90;16.80;;;15.80;99.90;;;;;;5019352;28;20037;-70
2023/07/31 08:35:38;;;;;;;54.25;17.85;;;15.90;99.90;;;;;;5023143;28;20034;-70
2023/07/31 08:38:03;;;;;;;48.38;18.73;;;15.90;99.90;;;;;;5021897;28;20025;-71
2023/07/31 08:40:29;;;;;;;55.90;17.85;;;15.90;99.90;;;;;;5021358;28;20037;-71
2023/07/31 08:43:02;;;;;;;58.08;18.80;;;16.00;99.90;;;;;;5023487;28;20033;-71
2023/07/31 08:45:29;;;;;;;55.28;19.83;;;16.10;99.90;;;;;;5022489;28;20046;-69
2023/07/31 08:47:56;;;;;;;63.05;20.95;;;16.20;99.90;;;;;;5021287;28;20022;-72
2023/07/31 08:50:22;;;;;;;60.70;21.00;;;16.20;99.90;;;;;;5022764;28;20073;-72
2023/07/31 08:52:50;;;;;;;60.40;20.50;;;16.20;99.90;;;;;;5021874;28;20107;-70
2023/07/31 08:55:16;;;;;;;59.65;19.77;;;16.30;99.90;;;;;;5022378;28;20049;-69
2023/07/31 08:57:43;;;;;;;50.85;20.58;;;16.30;99.90;;;;;;5021204;28;20152;-72
2023/07/31 09:00:10;;;;;;;47.97;18.50;;;16.30;99.90;;;;;;5021556;28;20880;-70
2023/07/31 09:03:00;;;;;;;57.20;20.13;;;16.30;99.90;;;;;;5021857;28;20056;-69
2023/07/31 09:05:27;;;;;;;51.45;20.00;;;16.30;99.90;;;;;;5022724;28;20060;-69
2023/07/31 09:07:54;;;;;;;53.05;19.58;;;16.30;99.90;;;;;;5022126;28;20026;-70
2023/07/31 09:10:20;;;;;;;43.10;18.17;;;16.40;99.90;;;;;;5022736;28;20050;-74
2023/07/31 09:12:46;;;;;;;47.80;18.25;;;16.40;99.90;;;;;;5023154;28;20033;-69
2023/07/31 09:15:11;;;;;;;45.28;17.25;;;16.40;99.90;;;;;;5021524;28;20060;-71
2023/07/31 09:17:37;;;;;;;46.08;17.25;;;16.40;99.90;;;;;;5021023;28;20033;-72
2023/07/31 09:20:17;;;;;;;45.90;16.77;;;16.40;99.90;;;;;;5020033;28;20024;-72
2023/07/31 09:22:44;;;;;;;46.55;17.70;;;16.40;99.90;;;;;;5017626;28;20410;-70
2023/07/31 09:25:30;;;;;;;42.53;17.08;;;16.40;99.90;;;;;;5019092;28;20017;-71
2023/07/31 09:28:03;;;;;;;38.78;16.38;;;16.40;99.90;;;;;;5021657;28;20091;-71
2023/07/31 09:30:29;;;;;;;45.92;16.05;;;16.40;99.90;;;;;;5020857;28;20376;-71
2023/07/31 09:33:04;;;;;;;25.45;12.85;;;16.40;99.90;;;;;;5020130;28;20076;-70
2023/07/31 09:35:34;;;;;;;33.33;13.90;;;16.30;99.90;;;;;;5021502;28;20069;-71
2023/07/31 09:38:19;;;;;;;33.55;14.30;;;16.30;99.90;;;;;;5021944;28;20307;-69
2023/07/31 09:40:48;;;;;;;32.00;14.82;;;16.20;99.90;;;;;;5019434;28;20044;-69
2023/07/31 09:43:21;;;;;;;34.63;13.90;;;16.30;99.90;;;;;;5020748;28;20037;-71
2023/07/31 09:45:47;;;;;;;37.10;14.27;;;16.20;99.90;;;;;;5020176;28;20029;-72
2023/07/31 09:48:18;;;;;;;42.20;14.07;;;16.30;99.90;;;;;;5020651;28;20394;-73
2023/07/31 09:50:48;;;;;;;30.30;13.60;;;16.30;99.90;;;;;;5017143;28;20069;-73
2023/07/31 09:53:15;;;;;;;32.53;12.85;;;16.30;99.90;;;;;;5018820;28;21153;-72
2023/07/31 09:55:42;;;;;;;38.72;14.00;;;16.30;99.90;;;;;;5021170;28;20022;-71
2023/07/31 09:58:09;;;;;;;25.00;12.18;;;16.30;99.90;;;;;;5015915;28;20038;-71
2023/07/31 10:00:37;;;;;;;34.90;12.65;;;16.30;99.90;;;;;;5012651;28;20068;-72
2023/07/31 10:03:05;;;;;;;29.63;12.45;;;16.30;99.90;;;;;;5013172;28;20097;-71
2023/07/31 10:05:36;;;;;;;20.52;10.77;;;16.30;99.90;;;;;;5010230;28;20075;-71
2023/07/31 10:08:03;;;;;;;25.75;11.68;;;16.30;99.90;;;;;;5014159;28;20027;-71
2023/07/31 10:10:28;;;;;;;21.52;10.23;;;16.30;99.90;;;;;;5016931;28;20089;-71
2023/07/31 10:13:02;;;;;;;21.63;9.57;;;16.40;99.90;;;;;;5020073;28;20046;-71
2023/07/31 10:15:29;;;;;;;19.13;7.68;;;16.40;99.90;;;;;;5021044;28;20038;-69
2023/07/31 10:17:56;;;;;;;18.88;8.27;;;16.40;99.90;;;;;;5022665;28;20025;-69
2023/07/31 10:20:22;;;;;;;19.60;7.63;;;16.40;99.90;;;;;;5022280;28;20056;-72
2023/07/31 10:22:49;;;;;;;14.80;6.82;;;16.50;99.90;;;;;;5023590;28;20022;-68
2023/07/31 10:25:19;;;;;;;16.63;7.85;;;16.40;99.90;;;;;;5023923;28;20036;-72
2023/07/31 10:27:49;;;;;;;15.68;7.13;;;16.50;99.90;;;;;;5023541;28;20025;-72
2023/07/31 10:30:17;;;;;;;18.52;7.55;;;16.50;99.90;;;;;;5024679;28;20038;-71
2023/07/31 10:32:45;;;;;;;17.77;6.45;;;16.50;99.90;;;;;;5023585;28;20044;-70
2023/07/31 10:35:11;;;;;;;15.27;5.88;;;16.50;99.90;;;;;;5025071;28;20515;-70
2023/07/31 10:37:44;;;;;;;11.35;5.70;;;16.50;99.90;;;;;;5021669;28;20113;-73
2023/07/31 10:40:11;;;;;;;16.15;6.35;;;16.50;99.90;;;;;;5023182;28;20053;-70
2023/07/31 10:42:48;;;;;;;14.48;6.55;;;16.60;99.90;;;;;;5021318;28;20022;-72
2023/07/31 10:45:33;;;;;;;14.32;6.43;;;16.60;99.90;;;;;;5021593;28;20421;-71
2023/07/31 10:48:16;;;;;;;15.90;6.47;;;16.60;99.90;;;;;;5023765;28;20029;-71
2023/07/31 10:50:50;;;;;;;13.48;5.53;;;16.70;99.90;;;;;;5023608;28;20038;-72
2023/07/31 10:53:26;;;;;;;10.73;5.25;;;16.70;99.90;;;;;;5023262;28;20053;-70
2023/07/31 10:55:53;;;;;;;10.63;4.88;;;16.70;99.90;;;;;;5021156;28;20060;-70
2023/07/31 10:58:21;;;;;;;10.60;4.68;;;16.70;99.90;;;;;;5023651;28;20022;-70
2023/07/31 11:00:46;;;;;;;7.45;3.95;;;16.70;99.90;;;;;;5020629;28;20026;-71
2023/07/31 11:03:17;;;;;;;10.50;4.80;;;16.70;99.90;;;;;;5021445;28;20040;-70
2023/07/31 11:06:03;;;;;;;7.63;4.20;;;16.80;99.90;;;;;;5021490;28;20034;-72
2023/07/31 11:08:30;;;;;;;6.47;3.53;;;16.80;99.90;;;;;;5022069;28;20034;-71
2023/07/31 11:11:02;;;;;;;5.82;3.33;;;16.90;99.90;;;;;;5024832;28;20020;-70
2023/07/31 11:13:56;;;;;;;6.70;3.72;;;16.90;99.90;;;;;;5023596;28;20235;-73
2023/07/31 11:16:23;;;;;;;5.10;3.08;;;17.00;99.90;;;;;;5024450;28;20057;-71
2023/07/31 11:18:51;;;;;;;5.55;3.13;;;17.00;99.90;;;;;;5023789;28;20095;-73
2023/07/31 11:21:22;;;;;;;7.72;3.13;;;17.10;99.90;;;;;;5022715;28;20022;-68
2023/07/31 11:23:51;;;;;;;5.05;2.80;;;17.10;99.90;;;;;;5023848;28;20030;-70
2023/07/31 11:26:18;;;;;;;6.55;2.67;;;17.10;99.90;;;;;;5022492;28;20049;-70
2023/07/31 11:28:46;;;;;;;3.95;2.42;;;17.10;99.90;;;;;;5023307;28;20045;-70
2023/07/31 11:31:11;;;;;;;5.57;2.50;;;17.10;99.90;;;;;;5022726;28;20013;-69
2023/07/31 11:33:37;;;;;;;4.03;2.70;;;17.20;99.90;;;;;;5024362;28;20072;-70
2023/07/31 11:36:04;;;;;;;5.68;2.70;;;17.20;99.90;;;;;;5023499;28;20026;-72
2023/07/31 11:38:31;;;;;;;3.97;2.72;;;17.20;99.90;;;;;;5023248;28;20148;-70
2023/07/31 11:41:00;;;;;;;5.72;2.72;;;17.20;99.90;;;;;;5020529;28;20495;-70
2023/07/31 11:43:26;;;;;;;3.88;2.72;;;17.20;99.90;;;;;;5022741;28;20029;-71
2023/07/31 11:45:58;;;;;;;6.53;2.42;;;17.10;99.90;;;;;;5023014;28;20025;-72
2023/07/31 11:48:29;;;;;;;2.97;2.30;;;17.10;99.90;;;;;;5023008;28;20026;-70
2023/07/31 11:50:57;;;;;;;4.30;2.55;;;17.20;99.90;;;;;;5023220;28;20030;-68
2023/07/31 11:53:47;;;;;;;4.45;2.70;;;17.10;99.90;;;;;;5023947;28;20467;-70
2023/07/31 11:56:16;;;;;;;2.60;2.40;;;17.10;99.90;;;;;;5024142;28;20036;-69
2023/07/31 11:58:44;;;;;;;4.25;2.80;;;17.10;99.90;;;;;;5022592;28;20041;-70
2023/07/31 12:01:09;;;;;;;4.63;2.25;;;17.10;99.90;;;;;;5022892;28;20090;-69
2023/07/31 12:03:35;;;;;;;4.15;2.20;;;17.10;99.90;;;;;;5022962;28;20042;-69
2023/07/31 12:06:02;;;;;;;3.40;2.05;;;17.10;99.90;;;;;;5023991;28;20057;-69
2023/07/31 12:08:27;;;;;;;5.20;2.53;;;17.10;99.90;;;;;;5023667;28;20032;-70
2023/07/31 12:10:54;;;;;;;8.55;2.38;;;17.10;99.90;;;;;;5023607;28;20014;-70
2023/07/31 12:13:24;;;;;;;9.10;2.30;;;17.10;99.90;;;;;;5023421;28;20022;-70
2023/07/31 12:15:55;;;;;;;4.68;1.85;;;17.10;99.90;;;;;;5023683;28;20117;-70
2023/07/31 12:18:22;;;;;;;2.33;2.13;;;17.10;99.90;;;;;;5020664;28;20073;-71
2023/07/31 12:20:53;;;;;;;6.60;2.47;;;17.10;99.90;;;;;;5020929;28;20033;-72
2023/07/31 12:23:30;;;;;;;4.85;2.33;;;17.10;99.90;;;;;;5023874;28;20033;-68
2023/07/31 12:26:14;;;;;;;2.75;2.03;;;17.10;99.90;;;;;;5022913;28;20030;-69
2023/07/31 12:28:41;;;;;;;4.90;2.95;;;17.20;99.90;;;;;;5020657;28;20017;-70
2023/07/31 12:31:11;;;;;;;8.18;2.80;;;17.20;99.90;;;;;;5022148;28;20103;-72
2023/07/31 12:33:38;;;;;;;6.15;3.03;;;17.30;99.90;;;;;;5020967;28;20026;-71
2023/07/31 12:36:08;;;;;;;3.85;3.10;;;17.20;99.90;;;;;;5022333;28;20034;-70
2023/07/31 12:38:34;;;;;;;6.78;3.65;;;17.30;99.90;;;;;;5022217;28;20093;-68